sensor_id;sensor_type;location;lat;lon;timestamp;pressure;altitude;pressure_sealevel;temperature
38114;BMP180;23926;53.222;6.354;2024-02-23T00:00:23;97894.00;;;7.20
38114;BMP180;23926;53.222;6.354;2024-02-23T00:02:49;97896.00;;;7.40
38114;BMP180;23926;53.222;6.354;2024-02-23T00:05:14;97931.00;;;7.50
38114;BMP180;23926;53.222;6.354;2024-02-23T00:07:40;97927.00;;;7.60
38114;BMP180;23926;53.222;6.354;2024-02-23T00:10:06;97942.00;;;7.80
38114;BMP180;23926;53.222;6.354;2024-02-23T00:12:31;97949.00;;;7.80
38114;BMP180;23926;53.222;6.354;2024-02-23T00:14:57;97953.00;;;7.90
38114;BMP180;23926;53.222;6.354;2024-02-23T00:17:22;97964.00;;;7.80
38114;BMP180;23926;53.222;6.354;2024-02-23T00:19:48;97979.00;;;8.00
38114;BMP180;23926;53.222;6.354;2024-02-23T00:22:14;97986.00;;;8.10
38114;BMP180;23926;53.222;6.354;2024-02-23T00:24:39;97993.00;;;8.00
38114;BMP180;23926;53.222;6.354;2024-02-23T00:27:06;97998.00;;;8.20
38114;BMP180;23926;53.222;6.354;2024-02-23T00:29:31;98005.00;;;8.10
38114;BMP180;23926;53.222;6.354;2024-02-23T00:31:56;98015.00;;;8.10
38114;BMP180;23926;53.222;6.354;2024-02-23T00:34:22;98013.00;;;8.20
38114;BMP180;23926;53.222;6.354;2024-02-23T00:36:47;98018.00;;;8.00
38114;BMP180;23926;53.222;6.354;2024-02-23T00:39:14;98049.00;;;8.00
38114;BMP180;23926;53.222;6.354;2024-02-23T00:41:39;98026.00;;;7.80
38114;BMP180;23926;53.222;6.354;2024-02-23T00:44:05;98047.00;;;7.80
38114;BMP180;23926;53.222;6.354;2024-02-23T00:46:30;98031.00;;;7.80
38114;BMP180;23926;53.222;6.354;2024-02-23T00:48:56;98033.00;;;7.90
38114;BMP180;23926;53.222;6.354;2024-02-23T00:51:21;98096.00;;;7.80
38114;BMP180;23926;53.222;6.354;2024-02-23T00:53:46;98078.00;;;7.60
38114;BMP180;23926;53.222;6.354;2024-02-23T00:56:12;98082.00;;;7.70
38114;BMP180;23926;53.222;6.354;2024-02-23T00:58:38;98068.00;;;7.50
38114;BMP180;23926;53.222;6.354;2024-02-23T01:01:04;98079.00;;;7.50
38114;BMP180;23926;53.222;6.354;2024-02-23T01:03:29;98074.00;;;7.50
38114;BMP180;23926;53.222;6.354;2024-02-23T01:05:55;98080.00;;;7.50
38114;BMP180;23926;53.222;6.354;2024-02-23T01:08:20;98078.00;;;7.80
38114;BMP180;23926;53.222;6.354;2024-02-23T01:10:45;98064.00;;;7.50
38114;BMP180;23926;53.222;6.354;2024-02-23T01:13:11;98100.00;;;7.50
38114;BMP180;23926;53.222;6.354;2024-02-23T01:15:36;98098.00;;;7.50
38114;BMP180;23926;53.222;6.354;2024-02-23T01:18:02;98103.00;;;7.70
38114;BMP180;23926;53.222;6.354;2024-02-23T01:20:28;98107.00;;;7.80
38114;BMP180;23926;53.222;6.354;2024-02-23T01:22:53;98116.00;;;8.00
38114;BMP180;23926;53.222;6.354;2024-02-23T01:25:19;98127.00;;;7.90
38114;BMP180;23926;53.222;6.354;2024-02-23T01:27:44;98139.00;;;8.00
38114;BMP180;23926;53.222;6.354;2024-02-23T01:30:10;98137.00;;;8.30
38114;BMP180;23926;53.222;6.354;2024-02-23T01:32:36;98134.00;;;8.00
38114;BMP180;23926;53.222;6.354;2024-02-23T01:35:04;98139.00;;;8.10
38114;BMP180;23926;53.222;6.354;2024-02-23T01:37:29;98143.00;;;8.10
38114;BMP180;23926;53.222;6.354;2024-02-23T01:39:54;98156.00;;;8.20
38114;BMP180;23926;53.222;6.354;2024-02-23T01:42:20;98157.00;;;8.10
38114;BMP180;23926;53.222;6.354;2024-02-23T01:44:45;98160.00;;;8.10
38114;BMP180;23926;53.222;6.354;2024-02-23T01:47:11;98150.00;;;8.20
38114;BMP180;23926;53.222;6.354;2024-02-23T01:49:36;98163.00;;;8.10
38114;BMP180;23926;53.222;6.354;2024-02-23T01:52:03;98175.00;;;8.10
38114;BMP180;23926;53.222;6.354;2024-02-23T01:54:29;98171.00;;;8.20
38114;BMP180;23926;53.222;6.354;2024-02-23T01:56:56;98180.00;;;8.10
38114;BMP180;23926;53.222;6.354;2024-02-23T01:59:23;98180.00;;;8.00
38114;BMP180;23926;53.222;6.354;2024-02-23T02:01:49;98187.00;;;8.20
38114;BMP180;23926;53.222;6.354;2024-02-23T02:04:14;98182.00;;;8.20
38114;BMP180;23926;53.222;6.354;2024-02-23T02:06:39;98196.00;;;8.20
38114;BMP180;23926;53.222;6.354;2024-02-23T02:09:05;98201.00;;;8.30
38114;BMP180;23926;53.222;6.354;2024-02-23T02:11:30;98209.00;;;8.40
38114;BMP180;23926;53.222;6.354;2024-02-23T02:13:56;98204.00;;;8.30
38114;BMP180;23926;53.222;6.354;2024-02-23T02:16:21;98217.00;;;8.30
38114;BMP180;23926;53.222;6.354;2024-02-23T02:18:47;98223.00;;;8.20
38114;BMP180;23926;53.222;6.354;2024-02-23T02:21:12;98235.00;;;8.30
38114;BMP180;23926;53.222;6.354;2024-02-23T02:23:38;98218.00;;;8.40
38114;BMP180;23926;53.222;6.354;2024-02-23T02:26:04;98235.00;;;8.40
38114;BMP180;23926;53.222;6.354;2024-02-23T02:28:29;98230.00;;;8.40
38114;BMP180;23926;53.222;6.354;2024-02-23T02:30:55;98251.00;;;8.60
38114;BMP180;23926;53.222;6.354;2024-02-23T02:33:21;98242.00;;;8.70
38114;BMP180;23926;53.222;6.354;2024-02-23T02:35:46;98262.00;;;8.80
38114;BMP180;23926;53.222;6.354;2024-02-23T02:38:12;98261.00;;;8.70
38114;BMP180;23926;53.222;6.354;2024-02-23T02:40:37;98248.00;;;8.70
38114;BMP180;23926;53.222;6.354;2024-02-23T02:43:03;98260.00;;;8.70
38114;BMP180;23926;53.222;6.354;2024-02-23T02:45:29;98266.00;;;8.70
38114;BMP180;23926;53.222;6.354;2024-02-23T02:47:54;98285.00;;;8.50
38114;BMP180;23926;53.222;6.354;2024-02-23T02:50:21;98275.00;;;8.50
38114;BMP180;23926;53.222;6.354;2024-02-23T02:52:47;98275.00;;;8.60
38114;BMP180;23926;53.222;6.354;2024-02-23T02:55:12;98273.00;;;8.40
38114;BMP180;23926;53.222;6.354;2024-02-23T02:57:38;98267.00;;;8.50
38114;BMP180;23926;53.222;6.354;2024-02-23T03:00:04;98279.00;;;8.50
38114;BMP180;23926;53.222;6.354;2024-02-23T03:02:34;98278.00;;;8.40
38114;BMP180;23926;53.222;6.354;2024-02-23T03:05:00;98293.00;;;8.50
38114;BMP180;23926;53.222;6.354;2024-02-23T03:07:25;98299.00;;;8.60
38114;BMP180;23926;53.222;6.354;2024-02-23T03:09:50;98301.00;;;8.60
38114;BMP180;23926;53.222;6.354;2024-02-23T03:12:16;98302.00;;;8.30
38114;BMP180;23926;53.222;6.354;2024-02-23T03:14:43;98298.00;;;8.10
38114;BMP180;23926;53.222;6.354;2024-02-23T03:17:08;98302.00;;;8.00
38114;BMP180;23926;53.222;6.354;2024-02-23T03:19:34;98291.00;;;8.20
38114;BMP180;23926;53.222;6.354;2024-02-23T03:22:00;98307.00;;;8.00
38114;BMP180;23926;53.222;6.354;2024-02-23T03:24:25;98318.00;;;8.10
38114;BMP180;23926;53.222;6.354;2024-02-23T03:26:51;98314.00;;;8.10
38114;BMP180;23926;53.222;6.354;2024-02-23T03:29:16;98318.00;;;8.00
38114;BMP180;23926;53.222;6.354;2024-02-23T03:31:41;98331.00;;;8.10
38114;BMP180;23926;53.222;6.354;2024-02-23T03:34:07;98323.00;;;8.00
38114;BMP180;23926;53.222;6.354;2024-02-23T03:36:34;98325.00;;;7.90
38114;BMP180;23926;53.222;6.354;2024-02-23T03:39:00;98345.00;;;8.10
38114;BMP180;23926;53.222;6.354;2024-02-23T03:41:25;98360.00;;;8.00
38114;BMP180;23926;53.222;6.354;2024-02-23T03:43:51;98344.00;;;8.00
38114;BMP180;23926;53.222;6.354;2024-02-23T03:46:16;98331.00;;;8.00
38114;BMP180;23926;53.222;6.354;2024-02-23T03:48:43;98337.00;;;8.20
38114;BMP180;23926;53.222;6.354;2024-02-23T03:51:09;98346.00;;;8.00
38114;BMP180;23926;53.222;6.354;2024-02-23T03:53:34;98348.00;;;7.90
38114;BMP180;23926;53.222;6.354;2024-02-23T03:56:00;98354.00;;;8.10
38114;BMP180;23926;53.222;6.354;2024-02-23T03:58:25;98359.00;;;8.00
38114;BMP180;23926;53.222;6.354;2024-02-23T04:00:51;98362.00;;;8.00
38114;BMP180;23926;53.222;6.354;2024-02-23T04:03:16;98372.00;;;8.00
38114;BMP180;23926;53.222;6.354;2024-02-23T04:05:42;98359.00;;;7.90
38114;BMP180;23926;53.222;6.354;2024-02-23T04:08:07;98365.00;;;7.90
38114;BMP180;23926;53.222;6.354;2024-02-23T04:10:33;98370.00;;;7.90
38114;BMP180;23926;53.222;6.354;2024-02-23T04:12:58;98370.00;;;7.80
38114;BMP180;23926;53.222;6.354;2024-02-23T04:15:23;98381.00;;;7.90
38114;BMP180;23926;53.222;6.354;2024-02-23T04:17:49;98388.00;;;7.90
38114;BMP180;23926;53.222;6.354;2024-02-23T04:20:14;98384.00;;;7.80
38114;BMP180;23926;53.222;6.354;2024-02-23T04:22:39;98380.00;;;7.60
38114;BMP180;23926;53.222;6.354;2024-02-23T04:25:05;98392.00;;;7.60
38114;BMP180;23926;53.222;6.354;2024-02-23T04:27:30;98394.00;;;7.70
38114;BMP180;23926;53.222;6.354;2024-02-23T04:29:56;98399.00;;;7.60
38114;BMP180;23926;53.222;6.354;2024-02-23T04:32:21;98398.00;;;7.70
38114;BMP180;23926;53.222;6.354;2024-02-23T04:34:47;98404.00;;;7.80
38114;BMP180;23926;53.222;6.354;2024-02-23T04:37:12;98418.00;;;7.70
38114;BMP180;23926;53.222;6.354;2024-02-23T04:39:38;98422.00;;;7.60
38114;BMP180;23926;53.222;6.354;2024-02-23T04:42:04;98431.00;;;7.60
38114;BMP180;23926;53.222;6.354;2024-02-23T04:44:29;98419.00;;;7.50
38114;BMP180;23926;53.222;6.354;2024-02-23T04:46:55;98426.00;;;7.60
38114;BMP180;23926;53.222;6.354;2024-02-23T04:49:20;98434.00;;;7.80
38114;BMP180;23926;53.222;6.354;2024-02-23T04:51:46;98444.00;;;7.70
38114;BMP180;23926;53.222;6.354;2024-02-23T04:54:11;98447.00;;;7.70
38114;BMP180;23926;53.222;6.354;2024-02-23T04:56:36;98452.00;;;7.80
38114;BMP180;23926;53.222;6.354;2024-02-23T04:59:02;98444.00;;;7.70
38114;BMP180;23926;53.222;6.354;2024-02-23T05:01:28;98464.00;;;7.70
38114;BMP180;23926;53.222;6.354;2024-02-23T05:03:53;98456.00;;;7.60
38114;BMP180;23926;53.222;6.354;2024-02-23T05:06:19;98458.00;;;7.50
38114;BMP180;23926;53.222;6.354;2024-02-23T05:08:44;98457.00;;;7.60
38114;BMP180;23926;53.222;6.354;2024-02-23T05:11:09;98462.00;;;7.50
38114;BMP180;23926;53.222;6.354;2024-02-23T05:13:35;98460.00;;;7.50
38114;BMP180;23926;53.222;6.354;2024-02-23T05:16:02;98463.00;;;7.50
38114;BMP180;23926;53.222;6.354;2024-02-23T05:18:27;98474.00;;;7.60
38114;BMP180;23926;53.222;6.354;2024-02-23T05:20:53;98469.00;;;7.60
38114;BMP180;23926;53.222;6.354;2024-02-23T05:23:18;98479.00;;;7.50
38114;BMP180;23926;53.222;6.354;2024-02-23T05:25:44;98467.00;;;7.50
38114;BMP180;23926;53.222;6.354;2024-02-23T05:28:09;98465.00;;;7.50
38114;BMP180;23926;53.222;6.354;2024-02-23T05:30:34;98467.00;;;7.60
38114;BMP180;23926;53.222;6.354;2024-02-23T05:33:00;98470.00;;;7.60
38114;BMP180;23926;53.222;6.354;2024-02-23T05:35:28;98462.00;;;7.60
38114;BMP180;23926;53.222;6.354;2024-02-23T05:37:54;98482.00;;;7.60
38114;BMP180;23926;53.222;6.354;2024-02-23T05:40:20;98478.00;;;7.70
38114;BMP180;23926;53.222;6.354;2024-02-23T05:42:46;98479.00;;;7.60
38114;BMP180;23926;53.222;6.354;2024-02-23T05:45:11;98464.00;;;7.70
38114;BMP180;23926;53.222;6.354;2024-02-23T05:47:38;98487.00;;;7.70
38114;BMP180;23926;53.222;6.354;2024-02-23T05:50:04;98493.00;;;7.70
38114;BMP180;23926;53.222;6.354;2024-02-23T05:52:33;98498.00;;;7.60
38114;BMP180;23926;53.222;6.354;2024-02-23T05:54:59;98484.00;;;7.70
38114;BMP180;23926;53.222;6.354;2024-02-23T05:57:28;98499.00;;;7.90
38114;BMP180;23926;53.222;6.354;2024-02-23T05:59:54;98504.00;;;8.00
38114;BMP180;23926;53.222;6.354;2024-02-23T06:02:20;98503.00;;;8.00
38114;BMP180;23926;53.222;6.354;2024-02-23T06:04:45;98499.00;;;8.10
38114;BMP180;23926;53.222;6.354;2024-02-23T06:07:11;98506.00;;;8.10
38114;BMP180;23926;53.222;6.354;2024-02-23T06:09:36;98519.00;;;8.10
38114;BMP180;23926;53.222;6.354;2024-02-23T06:12:02;98515.00;;;8.10
38114;BMP180;23926;53.222;6.354;2024-02-23T06:14:28;98511.00;;;8.10
38114;BMP180;23926;53.222;6.354;2024-02-23T06:16:53;98511.00;;;8.30
38114;BMP180;23926;53.222;6.354;2024-02-23T06:19:18;98517.00;;;8.20
38114;BMP180;23926;53.222;6.354;2024-02-23T06:21:47;98507.00;;;8.10
38114;BMP180;23926;53.222;6.354;2024-02-23T06:24:14;98515.00;;;7.90
38114;BMP180;23926;53.222;6.354;2024-02-23T06:26:39;98529.00;;;8.00
38114;BMP180;23926;53.222;6.354;2024-02-23T06:29:04;98520.00;;;7.90
38114;BMP180;23926;53.222;6.354;2024-02-23T06:31:31;98531.00;;;8.00
38114;BMP180;23926;53.222;6.354;2024-02-23T06:33:58;98546.00;;;8.20
38114;BMP180;23926;53.222;6.354;2024-02-23T06:36:24;98541.00;;;8.30
38114;BMP180;23926;53.222;6.354;2024-02-23T06:38:49;98530.00;;;8.20
38114;BMP180;23926;53.222;6.354;2024-02-23T06:41:15;98530.00;;;8.40
38114;BMP180;23926;53.222;6.354;2024-02-23T06:43:40;98539.00;;;8.50
38114;BMP180;23926;53.222;6.354;2024-02-23T06:46:09;98549.00;;;8.60
38114;BMP180;23926;53.222;6.354;2024-02-23T06:48:37;98555.00;;;8.60
38114;BMP180;23926;53.222;6.354;2024-02-23T06:51:04;98550.00;;;8.40
38114;BMP180;23926;53.222;6.354;2024-02-23T06:53:30;98544.00;;;8.40
38114;BMP180;23926;53.222;6.354;2024-02-23T06:55:56;98561.00;;;8.50
38114;BMP180;23926;53.222;6.354;2024-02-23T06:58:21;98548.00;;;8.40
38114;BMP180;23926;53.222;6.354;2024-02-23T07:00:47;98549.00;;;8.40
38114;BMP180;23926;53.222;6.354;2024-02-23T07:03:13;98538.00;;;8.30
38114;BMP180;23926;53.222;6.354;2024-02-23T07:05:40;98556.00;;;8.20
38114;BMP180;23926;53.222;6.354;2024-02-23T07:08:07;98547.00;;;8.10
38114;BMP180;23926;53.222;6.354;2024-02-23T07:10:33;98531.00;;;8.00
38114;BMP180;23926;53.222;6.354;2024-02-23T07:12:58;98552.00;;;8.00
38114;BMP180;23926;53.222;6.354;2024-02-23T07:15:23;98559.00;;;8.00
38114;BMP180;23926;53.222;6.354;2024-02-23T07:17:51;98578.00;;;8.00
38114;BMP180;23926;53.222;6.354;2024-02-23T07:20:16;98567.00;;;8.00
38114;BMP180;23926;53.222;6.354;2024-02-23T07:22:45;98570.00;;;8.00
38114;BMP180;23926;53.222;6.354;2024-02-23T07:25:19;98584.00;;;8.20
38114;BMP180;23926;53.222;6.354;2024-02-23T07:27:46;98581.00;;;8.30
38114;BMP180;23926;53.222;6.354;2024-02-23T07:30:12;98591.00;;;8.50
38114;BMP180;23926;53.222;6.354;2024-02-23T07:32:37;98582.00;;;8.60
38114;BMP180;23926;53.222;6.354;2024-02-23T07:35:03;98570.00;;;8.70
38114;BMP180;23926;53.222;6.354;2024-02-23T07:37:29;98591.00;;;9.10
38114;BMP180;23926;53.222;6.354;2024-02-23T07:39:55;98600.00;;;9.10
38114;BMP180;23926;53.222;6.354;2024-02-23T07:42:20;98596.00;;;9.20
38114;BMP180;23926;53.222;6.354;2024-02-23T07:44:45;98586.00;;;9.20
38114;BMP180;23926;53.222;6.354;2024-02-23T07:47:11;98606.00;;;9.30
38114;BMP180;23926;53.222;6.354;2024-02-23T07:49:37;98602.00;;;9.40
38114;BMP180;23926;53.222;6.354;2024-02-23T07:52:03;98601.00;;;9.40
38114;BMP180;23926;53.222;6.354;2024-02-23T07:54:29;98596.00;;;9.50
38114;BMP180;23926;53.222;6.354;2024-02-23T07:56:54;98603.00;;;9.60
38114;BMP180;23926;53.222;6.354;2024-02-23T07:59:19;98619.00;;;9.70
38114;BMP180;23926;53.222;6.354;2024-02-23T08:01:45;98619.00;;;9.70
38114;BMP180;23926;53.222;6.354;2024-02-23T08:04:10;98614.00;;;9.90
38114;BMP180;23926;53.222;6.354;2024-02-23T08:06:36;98619.00;;;9.70
38114;BMP180;23926;53.222;6.354;2024-02-23T08:09:01;98611.00;;;9.90
38114;BMP180;23926;53.222;6.354;2024-02-23T08:11:27;98593.00;;;9.60
38114;BMP180;23926;53.222;6.354;2024-02-23T08:13:53;98614.00;;;9.80
38114;BMP180;23926;53.222;6.354;2024-02-23T08:16:18;98608.00;;;9.40
38114;BMP180;23926;53.222;6.354;2024-02-23T08:18:44;98627.00;;;9.60
38114;BMP180;23926;53.222;6.354;2024-02-23T08:21:10;98629.00;;;9.70
38114;BMP180;23926;53.222;6.354;2024-02-23T08:23:36;98632.00;;;9.80
38114;BMP180;23926;53.222;6.354;2024-02-23T08:26:04;98626.00;;;9.80
38114;BMP180;23926;53.222;6.354;2024-02-23T08:28:29;98623.00;;;9.80
38114;BMP180;23926;53.222;6.354;2024-02-23T08:30:54;98617.00;;;10.10
38114;BMP180;23926;53.222;6.354;2024-02-23T08:33:20;98611.00;;;10.10
38114;BMP180;23926;53.222;6.354;2024-02-23T08:35:45;98610.00;;;9.90
38114;BMP180;23926;53.222;6.354;2024-02-23T08:38:13;98612.00;;;10.00
38114;BMP180;23926;53.222;6.354;2024-02-23T08:40:39;98604.00;;;10.20
38114;BMP180;23926;53.222;6.354;2024-02-23T08:43:05;98613.00;;;10.30
38114;BMP180;23926;53.222;6.354;2024-02-23T08:45:30;98613.00;;;10.20
38114;BMP180;23926;53.222;6.354;2024-02-23T08:47:56;98598.00;;;10.20
38114;BMP180;23926;53.222;6.354;2024-02-23T08:50:21;98593.00;;;10.20
38114;BMP180;23926;53.222;6.354;2024-02-23T08:52:47;98594.00;;;10.20
38114;BMP180;23926;53.222;6.354;2024-02-23T08:55:12;98602.00;;;10.10
38114;BMP180;23926;53.222;6.354;2024-02-23T08:57:37;98610.00;;;10.20
38114;BMP180;23926;53.222;6.354;2024-02-23T09:00:04;98602.00;;;10.30
38114;BMP180;23926;53.222;6.354;2024-02-23T09:02:30;98587.00;;;10.50
38114;BMP180;23926;53.222;6.354;2024-02-23T09:04:56;98601.00;;;10.40
38114;BMP180;23926;53.222;6.354;2024-02-23T09:07:21;98590.00;;;10.40
38114;BMP180;23926;53.222;6.354;2024-02-23T09:09:47;98592.00;;;10.60
38114;BMP180;23926;53.222;6.354;2024-02-23T09:12:14;98593.00;;;10.60
38114;BMP180;23926;53.222;6.354;2024-02-23T09:14:41;98598.00;;;10.50
38114;BMP180;23926;53.222;6.354;2024-02-23T09:17:08;98592.00;;;10.50
38114;BMP180;23926;53.222;6.354;2024-02-23T09:19:35;98592.00;;;10.50
38114;BMP180;23926;53.222;6.354;2024-02-23T09:22:00;98596.00;;;10.40
38114;BMP180;23926;53.222;6.354;2024-02-23T09:24:27;98583.00;;;10.70
38114;BMP180;23926;53.222;6.354;2024-02-23T09:26:52;98610.00;;;10.70
38114;BMP180;23926;53.222;6.354;2024-02-23T09:29:18;98610.00;;;10.60
38114;BMP180;23926;53.222;6.354;2024-02-23T09:31:43;98600.00;;;10.80
38114;BMP180;23926;53.222;6.354;2024-02-23T09:34:09;98602.00;;;10.60
38114;BMP180;23926;53.222;6.354;2024-02-23T09:36:34;98600.00;;;10.60
38114;BMP180;23926;53.222;6.354;2024-02-23T09:39:00;98606.00;;;10.60
38114;BMP180;23926;53.222;6.354;2024-02-23T09:41:27;98607.00;;;10.50
38114;BMP180;23926;53.222;6.354;2024-02-23T09:43:58;98612.00;;;10.70
38114;BMP180;23926;53.222;6.354;2024-02-23T09:46:24;98598.00;;;10.80
38114;BMP180;23926;53.222;6.354;2024-02-23T09:48:50;98604.00;;;11.10
38114;BMP180;23926;53.222;6.354;2024-02-23T09:51:16;98603.00;;;11.20
38114;BMP180;23926;53.222;6.354;2024-02-23T09:53:42;98602.00;;;11.30
38114;BMP180;23926;53.222;6.354;2024-02-23T09:56:09;98606.00;;;11.50
38114;BMP180;23926;53.222;6.354;2024-02-23T09:58:36;98600.00;;;11.50
38114;BMP180;23926;53.222;6.354;2024-02-23T10:01:02;98603.00;;;11.80
38114;BMP180;23926;53.222;6.354;2024-02-23T10:03:29;98606.00;;;11.80
38114;BMP180;23926;53.222;6.354;2024-02-23T10:05:56;98603.00;;;12.10
38114;BMP180;23926;53.222;6.354;2024-02-23T10:08:22;98613.00;;;12.00
38114;BMP180;23926;53.222;6.354;2024-02-23T10:10:47;98611.00;;;12.20
38114;BMP180;23926;53.222;6.354;2024-02-23T10:13:20;98618.00;;;12.30
38114;BMP180;23926;53.222;6.354;2024-02-23T10:15:49;98615.00;;;12.30
38114;BMP180;23926;53.222;6.354;2024-02-23T10:18:15;98626.00;;;12.40
38114;BMP180;23926;53.222;6.354;2024-02-23T10:20:40;98613.00;;;12.40
38114;BMP180;23926;53.222;6.354;2024-02-23T10:23:08;98619.00;;;12.10
38114;BMP180;23926;53.222;6.354;2024-02-23T10:25:34;98625.00;;;11.70
38114;BMP180;23926;53.222;6.354;2024-02-23T10:28:01;98630.00;;;11.40
38114;BMP180;23926;53.222;6.354;2024-02-23T10:30:27;98630.00;;;11.40
38114;BMP180;23926;53.222;6.354;2024-02-23T10:32:55;98627.00;;;11.20
38114;BMP180;23926;53.222;6.354;2024-02-23T10:35:22;98627.00;;;11.30
38114;BMP180;23926;53.222;6.354;2024-02-23T10:37:49;98632.00;;;11.40
38114;BMP180;23926;53.222;6.354;2024-02-23T10:40:16;98645.00;;;11.60
38114;BMP180;23926;53.222;6.354;2024-02-23T10:42:46;98636.00;;;11.90
38114;BMP180;23926;53.222;6.354;2024-02-23T10:45:19;98632.00;;;12.00
38114;BMP180;23926;53.222;6.354;2024-02-23T10:47:45;98635.00;;;11.90
38114;BMP180;23926;53.222;6.354;2024-02-23T10:50:11;98636.00;;;11.80
38114;BMP180;23926;53.222;6.354;2024-02-23T10:52:40;98650.00;;;11.60
38114;BMP180;23926;53.222;6.354;2024-02-23T10:55:08;98651.00;;;11.60
38114;BMP180;23926;53.222;6.354;2024-02-23T10:57:34;98653.00;;;11.50
38114;BMP180;23926;53.222;6.354;2024-02-23T11:00:00;98658.00;;;11.70
38114;BMP180;23926;53.222;6.354;2024-02-23T11:02:27;98653.00;;;11.50
38114;BMP180;23926;53.222;6.354;2024-02-23T11:04:55;98657.00;;;11.50
38114;BMP180;23926;53.222;6.354;2024-02-23T11:07:22;98655.00;;;11.30
38114;BMP180;23926;53.222;6.354;2024-02-23T11:09:54;98666.00;;;11.30
38114;BMP180;23926;53.222;6.354;2024-02-23T11:12:29;98660.00;;;11.20
38114;BMP180;23926;53.222;6.354;2024-02-23T11:14:59;98672.00;;;11.00
38114;BMP180;23926;53.222;6.354;2024-02-23T11:17:32;98677.00;;;10.80
38114;BMP180;23926;53.222;6.354;2024-02-23T11:19:58;98670.00;;;10.80
38114;BMP180;23926;53.222;6.354;2024-02-23T11:22:30;98676.00;;;10.60
38114;BMP180;23926;53.222;6.354;2024-02-23T11:25:16;98672.00;;;10.70
38114;BMP180;23926;53.222;6.354;2024-02-23T11:27:42;98663.00;;;10.80
38114;BMP180;23926;53.222;6.354;2024-02-23T11:30:09;98668.00;;;10.80
38114;BMP180;23926;53.222;6.354;2024-02-23T11:32:45;98669.00;;;11.00
38114;BMP180;23926;53.222;6.354;2024-02-23T11:35:13;98665.00;;;11.00
38114;BMP180;23926;53.222;6.354;2024-02-23T11:37:52;98665.00;;;11.00
38114;BMP180;23926;53.222;6.354;2024-02-23T11:40:25;98662.00;;;11.10
38114;BMP180;23926;53.222;6.354;2024-02-23T11:42:51;98654.00;;;11.00
38114;BMP180;23926;53.222;6.354;2024-02-23T11:45:16;98656.00;;;11.10
38114;BMP180;23926;53.222;6.354;2024-02-23T11:47:42;98664.00;;;11.20
38114;BMP180;23926;53.222;6.354;2024-02-23T11:50:11;98666.00;;;11.10
38114;BMP180;23926;53.222;6.354;2024-02-23T11:52:39;98663.00;;;11.10
38114;BMP180;23926;53.222;6.354;2024-02-23T11:55:06;98661.00;;;11.20
38114;BMP180;23926;53.222;6.354;2024-02-23T11:57:33;98647.00;;;11.20
38114;BMP180;23926;53.222;6.354;2024-02-23T11:59:58;98653.00;;;11.30
38114;BMP180;23926;53.222;6.354;2024-02-23T12:02:24;98659.00;;;11.20
38114;BMP180;23926;53.222;6.354;2024-02-23T12:04:49;98662.00;;;11.30
38114;BMP180;23926;53.222;6.354;2024-02-23T12:07:15;98662.00;;;11.40
38114;BMP180;23926;53.222;6.354;2024-02-23T12:09:41;98656.00;;;11.50
38114;BMP180;23926;53.222;6.354;2024-02-23T12:12:07;98665.00;;;11.50
38114;BMP180;23926;53.222;6.354;2024-02-23T12:14:35;98655.00;;;11.50
38114;BMP180;23926;53.222;6.354;2024-02-23T12:17:02;98655.00;;;11.40
38114;BMP180;23926;53.222;6.354;2024-02-23T12:19:29;98656.00;;;11.40
38114;BMP180;23926;53.222;6.354;2024-02-23T12:22:00;98656.00;;;11.30
38114;BMP180;23926;53.222;6.354;2024-02-23T12:24:25;98668.00;;;11.40
38114;BMP180;23926;53.222;6.354;2024-02-23T12:26:54;98654.00;;;11.40
38114;BMP180;23926;53.222;6.354;2024-02-23T12:29:20;98667.00;;;11.40
38114;BMP180;23926;53.222;6.354;2024-02-23T12:31:45;98667.00;;;11.30
38114;BMP180;23926;53.222;6.354;2024-02-23T12:34:11;98657.00;;;11.30
38114;BMP180;23926;53.222;6.354;2024-02-23T12:36:39;98668.00;;;11.20
38114;BMP180;23926;53.222;6.354;2024-02-23T12:39:04;98685.00;;;11.20
38114;BMP180;23926;53.222;6.354;2024-02-23T12:41:30;98663.00;;;11.20
38114;BMP180;23926;53.222;6.354;2024-02-23T12:43:55;98672.00;;;11.20
38114;BMP180;23926;53.222;6.354;2024-02-23T12:46:20;98683.00;;;11.30
38114;BMP180;23926;53.222;6.354;2024-02-23T12:48:46;98675.00;;;11.10
38114;BMP180;23926;53.222;6.354;2024-02-23T12:51:11;98673.00;;;11.00
38114;BMP180;23926;53.222;6.354;2024-02-23T12:53:39;98666.00;;;11.00
38114;BMP180;23926;53.222;6.354;2024-02-23T12:56:09;98685.00;;;11.30
38114;BMP180;23926;53.222;6.354;2024-02-23T12:58:40;98674.00;;;11.50
38114;BMP180;23926;53.222;6.354;2024-02-23T13:01:05;98671.00;;;11.50
38114;BMP180;23926;53.222;6.354;2024-02-23T13:03:32;98673.00;;;11.70
38114;BMP180;23926;53.222;6.354;2024-02-23T13:05:58;98683.00;;;12.10
38114;BMP180;23926;53.222;6.354;2024-02-23T13:08:24;98698.00;;;12.10
38114;BMP180;23926;53.222;6.354;2024-02-23T13:10:51;98690.00;;;12.10
38114;BMP180;23926;53.222;6.354;2024-02-23T13:13:17;98696.00;;;11.90
38114;BMP180;23926;53.222;6.354;2024-02-23T13:15:44;98688.00;;;12.00
38114;BMP180;23926;53.222;6.354;2024-02-23T13:18:09;98695.00;;;11.90
38114;BMP180;23926;53.222;6.354;2024-02-23T13:20:36;98692.00;;;11.80
38114;BMP180;23926;53.222;6.354;2024-02-23T13:23:01;98701.00;;;11.60
38114;BMP180;23926;53.222;6.354;2024-02-23T13:25:27;98694.00;;;11.80
38114;BMP180;23926;53.222;6.354;2024-02-23T13:27:53;98704.00;;;12.10
38114;BMP180;23926;53.222;6.354;2024-02-23T13:30:18;98698.00;;;12.00
38114;BMP180;23926;53.222;6.354;2024-02-23T13:32:45;98714.00;;;11.90
38114;BMP180;23926;53.222;6.354;2024-02-23T13:35:10;98715.00;;;11.80
38114;BMP180;23926;53.222;6.354;2024-02-23T13:37:36;98715.00;;;11.60
38114;BMP180;23926;53.222;6.354;2024-02-23T13:40:01;98720.00;;;11.50
38114;BMP180;23926;53.222;6.354;2024-02-23T13:42:28;98727.00;;;11.40
38114;BMP180;23926;53.222;6.354;2024-02-23T13:44:54;98709.00;;;11.60
38114;BMP180;23926;53.222;6.354;2024-02-23T13:47:19;98708.00;;;11.60
38114;BMP180;23926;53.222;6.354;2024-02-23T13:49:45;98711.00;;;11.50
38114;BMP180;23926;53.222;6.354;2024-02-23T13:52:10;98726.00;;;11.50
38114;BMP180;23926;53.222;6.354;2024-02-23T13:54:35;98731.00;;;11.40
38114;BMP180;23926;53.222;6.354;2024-02-23T13:57:01;98743.00;;;11.30
38114;BMP180;23926;53.222;6.354;2024-02-23T13:59:27;98746.00;;;11.30
38114;BMP180;23926;53.222;6.354;2024-02-23T14:01:52;98763.00;;;11.10
38114;BMP180;23926;53.222;6.354;2024-02-23T14:04:18;98760.00;;;10.80
38114;BMP180;23926;53.222;6.354;2024-02-23T14:06:43;98765.00;;;10.40
38114;BMP180;23926;53.222;6.354;2024-02-23T14:09:09;98779.00;;;10.00